Flight Track Log - Related Links

Times and Time Zones

All times are in EST time to prevent confusion due to time zone crossing. See the ASQ4421 flight status page for this flight to view local times or setup timezone preferences in your user account.

Time Position Orientation Groundspeed Altitude Reporting Facility
EST Latitude Longitude Course Direction KTS MPH feet Rate Location/Type
Thu 06:20:58 AM 45.2833 -75.6333 198° South 150 173 1,800  Level Montreal Center
Thu 06:21:58 AM 45.2667 -75.5833 115° Southeast 190 219 4,200 2,550 Climbing Montreal Center
Thu 06:22:58 AM 45.2167 -75.5667 167° South 210 242 6,900 2,450 Climbing Montreal Center
Thu 06:23:58 AM 45.1500 -75.6167 208° Southwest 250 288 9,100 2,250 Climbing Montreal Center
Thu 06:24:00 AM 44.8954 -75.7752 196° South  Level FlightAware Approximate
Thu 06:24:58 AM 45.0833 -75.6667 208° Southwest 270 311 11,400  Level Montreal Center
Thu 06:25:00 AM 44.8185 -75.8060 196° South  Level FlightAware Approximate
Thu 06:25:58 AM 45.0167 -75.7000 199° South 320 368 12,500  Level Montreal Center
Thu 06:26:00 AM 44.7221 -75.8458 198° South  Level FlightAware Approximate
Thu 06:26:58 AM 44.9333 -75.7833 215° Southwest 320 368 14,600  Level Montreal Center
Thu 06:27:58 AM 44.8500 -75.8500 210° Southwest 330 380 16,200 1,550 Climbing Montreal Center
Thu 06:28:58 AM 44.7833 -75.9000 208° Southwest 340 391 17,700 1,450 Climbing Montreal Center
Thu 06:29:58 AM 44.6833 -75.9667 205° Southwest 340 391 19,100 1,400 Climbing Montreal Center
Thu 06:30:58 AM 44.5833 -76.0000 193° South 370 426 20,500 1,350 Climbing Montreal Center
Thu 06:31:58 AM 44.4833 -76.0000 180° South 380 437 21,800 1,550 Climbing Montreal Center
Thu 06:32:58 AM 44.3833 -76.0167 187° South 370 426 23,600 1,800 Climbing Montreal Center
Thu 06:33:58 AM 44.2833 -76.0167 180° South 370 426 25,400 1,600 Climbing Montreal Center
Thu 06:34:58 AM 44.1833 -76.0333 187° South 370 426 26,800 1,424 Climbing Montreal Center
Thu 06:35:56 AM 44.1067 -76.0489 188° South 367 422 28,200 1,603 Climbing Boston Center
Thu 06:36:54 AM 44.0072 -76.0597 184° South 365 420 29,900 915 Climbing Boston Center
Thu 06:37:54 AM 43.9047 -76.0733 185° South 371 427 30,000 50 Climbing Boston Center
Thu 06:38:55 AM 43.7936 -76.0942 188° South 397 457 30,000  Level Boston Center
Thu 06:39:57 AM 43.6797 -76.1136 187° South 410 472 30,000  Level Boston Center
Thu 06:40:59 AM 43.5644 -76.1333 187° South 417 480 30,000  Level Boston Center
Thu 06:42:00 AM 43.4492 -76.1536 187° South 422 486 30,000  Level Boston Center
Thu 06:43:01 AM 43.3089 -76.1789 187° South 423 487 30,000  Level Boston Center
Thu 06:44:02 AM 43.1922 -76.1983 187° South 423 487 30,000  Level Boston Center
Thu 06:45:00 AM 43.0892 -76.2642 205° Southwest 408 470 30,000  Level Boston Center
Thu 06:46:54 AM 42.9147 -76.4078 211° Southwest 410 472 30,000  Level Cleveland Center
Thu 06:47:55 AM 42.8175 -76.4878 211° Southwest 408 470 30,000  Level Cleveland Center
Thu 06:48:56 AM 42.7222 -76.5658 211° Southwest 405 466 30,000  Level Cleveland Center
Thu 06:50:05 AM 42.6142 -76.6531 211° Southwest 403 464 30,000  Level Boston Center
Thu 06:51:06 AM 42.5000 -76.7458 211° Southwest 400 460 30,000  Level Boston Center
Thu 06:52:09 AM 42.4050 -76.8239 211° Southwest 400 460 30,000  Level Boston Center
Thu 06:53:07 AM 42.3086 -76.9028 211° Southwest 404 465 30,000  Level New York Center
Thu 06:54:07 AM 42.2128 -76.9808 211° Southwest 404 465 30,000 -600 Level New York Center
Thu 06:55:07 AM 42.1172 -77.0556 210° Southwest 404 465 28,800 -1,026 Descending New York Center
Thu 06:56:04 AM 42.0369 -77.1181 210° Southwest 411 473 28,000 -407 Descending Cleveland Center
Thu 06:57:05 AM 41.9386 -77.1978 211° Southwest 413 475 28,000  Level Cleveland Center
Thu 06:58:07 AM 41.8214 -77.2922 211° Southwest 414 476 28,000  Level New York Center
Thu 06:59:07 AM 41.7233 -77.3689 210° Southwest 414 476 28,000  Level New York Center
Thu 07:00:07 AM 41.6253 -77.4478 211° Southwest 420 483 28,000  Level New York Center
Thu 07:01:07 AM 41.5253 -77.5239 210° Southwest 420 483 28,000 -550 Level New York Center
Thu 07:02:07 AM 41.4336 -77.5950 210° Southwest 420 483 26,900 -1,550 Descending New York Center
Thu 07:03:07 AM 41.3333 -77.6733 210° Southwest 420 483 24,900 -2,000 Descending New York Center
Thu 07:04:07 AM 41.2394 -77.7464 210° Southwest 420 483 22,900 -2,000 Descending New York Center
Thu 07:05:07 AM 41.1411 -77.8219 210° Southwest 414 476 20,900 -2,000 Descending New York Center
Thu 07:06:07 AM 41.0350 -77.8519 192° South 409 471 18,900 -1,450 Descending New York Center
Thu 07:07:07 AM 40.9325 -77.7892 155° Southeast 371 427 18,000 -450 Descending New York Center
Thu 07:08:07 AM 40.8350 -77.7106 149° Southeast 377 434 18,000  Level New York Center
Thu 07:09:07 AM 40.7375 -77.6322 149° Southeast 398 458 18,000  Level New York Center
Thu 07:10:07 AM 40.6275 -77.5500 150° Southeast 403 464 18,000  Level New York Center
Thu 07:11:07 AM 40.5339 -77.4725 148° Southeast 403 464 18,000  Level New York Center
Thu 07:12:07 AM 40.4400 -77.4006 150° Southeast 403 464 18,000  Level New York Center
Thu 07:13:07 AM 40.3319 -77.3578 163° South 403 464 18,000 -400 Level New York Center
Thu 07:14:07 AM 40.2353 -77.3350 170° South 398 458 17,200 -1,500 Descending New York Center
Thu 07:16:23 AM 40.0000 -77.2833 170° South 371 427 13,100 -1,255 Descending Potomac TRACON
Thu 07:17:23 AM 39.8833 -77.2667 174° South 369 425 13,100 -99 Level Potomac TRACON
Thu 07:18:24 AM 39.8000 -77.2833 189° South 313 360 12,900 -843 Descending Potomac TRACON
Thu 07:19:24 AM 39.7333 -77.3000 191° South 279 321 11,400 -1,450 Descending Potomac TRACON
Thu 07:20:24 AM 39.6667 -77.3333 201° Southwest 264 304 10,000 -947 Descending Potomac TRACON
Thu 07:21:18 AM 39.6000 -77.3333 180° South 273 314 9,600 -991 Descending Potomac TRACON
Thu 07:22:13 AM 39.5167 -77.3500 189° South 268 308 8,200 -1,357 Descending Potomac TRACON
Thu 07:23:13 AM 39.4500 -77.3500 180° South 254 292 7,000 -744 Descending Potomac TRACON
Thu 07:24:14 AM 39.3833 -77.3667 191° South 254 292 6,700 -783 Descending Potomac TRACON
Thu 07:25:08 AM 39.3333 -77.3667 180° South 253 291 5,500 -944 Descending Potomac TRACON
Thu 07:26:02 AM 39.2667 -77.3667 180° South 251 289 5,000 -737 Descending Potomac TRACON
Thu 07:27:02 AM 39.1833 -77.3667 180° South 245 282 4,100 -522 Descending Potomac TRACON
Thu 07:27:57 AM 39.1333 -77.3500 166° South 238 274 4,000 -52 Descending Potomac TRACON
Thu 07:28:57 AM 39.0667 -77.3500 180° South 237 273 4,000  Level Potomac TRACON
Thu 07:29:57 AM 39.0000 -77.3500 180° South 245 282 4,000  Level Potomac TRACON
Thu 07:30:51 AM 38.9333 -77.3500 180° South 247 284 4,000 -421 Level Potomac TRACON
Thu 07:31:51 AM 38.8667 -77.3667 191° South 215 247 3,200 -1,050 Descending Potomac TRACON
Thu 07:32:51 AM 38.8667 -77.4167 270° West 174 200 1,900 -1,048 Descending Potomac TRACON
Thu 07:33:57 AM 38.9000 -77.4333 339° North 117 135 1,000 -818 Descending Potomac TRACON

Login

Don't have an account? Register now (free) for customized features, flight alerts, and more!